El Campo, TX (77437)

12:08 PM CDT on October 25, 2014 (GMT -0500)
FM1160 | Change Station
CLOSE
Current Station
Personal Weather Station
Location: Louise, TX
Elevation: 105 ft
Nearby Weather Stations

Elev 105 ft 29.20 °N, 96.40 °W | Updated 5 minutes ago

Clear
Clear
88.7 °F
Feels Like 92 °F
N
0.7
Wind Variable Wind from SW
Gusts 3.8 mph

Today
High -- | Low -- °F
--% Chance of Precip.
Yesterday
High -- | Low -- °F
Precip. -- in
7:32 AM 6:44 PM
Waxing Crescent, 3% visible
Pressure 30.19 in
Visibility 10.0 miles
Clouds Clear
Heat Index 92 °F
Dew Point 68 °F
Humidity 50%
Rainfall -999.00 in
Snow Depth Not available.
UV 6 out of 12
Pollen 4.60 out of 12
Air Quality Not available.
Flu Activity Local Activity
METAR KARM 251655Z AUTO 00000KT 10SM CLR 26/14 A3019 RMK AO2 T02560138

More Conditions Fewer Conditions

Pressure 30.19 in
Visibility 10.0 miles
Clouds Clear
Heat Index 92 °F
Dew Point 68 °F
Humidity 50%
Rainfall -999.00 in
Snow Depth Not available.
UV 6 out of 12
Pollen 4.60 out of 12
Air Quality Not available.
Flu Activity Local Activity
METAR KARM 251655Z AUTO 00000KT 10SM CLR 26/14 A3019 RMK AO2 T02560138

More Conditions Fewer Conditions

10-Day Weather Forecast

Almanac

Astronomy

Oct. 25, 2014 Rise Set
Actual Time 7:32 AM CDT 6:44 PM CDT
Civil Twilight 7:08 AM CDT 7:09 PM CDT
Nautical Twilight 6:40 AM CDT 7:37 PM CDT
Astronomical Twilight 6:13 AM CDT 8:04 PM CDT
Moon 9:07 AM CDT 8:15 PM CDT
Length of Visible Light 12h 00m
Length of Day
11h 12m
Tomorrow will be 1m 36s shorter.
Waxing Crescent, 3% of the Moon is Illuminated
Today
Waxing Crescent
Oct 30
First Quarter
Nov 6
Full
Nov 14
Last Quarter
Nov 22
New

Today's Extremes

State Highs State Lows

Community

WunderPhotos

Upload Photos

1,764,909 photos uploaded!

Nearby

Snow Depth

Station Depth Elevation
No new snow has been reported.

Earthquake Activity

City Distance Mag. Time & Date
No recent earthquake activity has been reported nearby.
Minimum magnitude displayed is 2.5.

Coastal Water Temperatures

Place Temperature
No Stations Reporting

Nearby Weather Stations